createdAt,value
2023-02-08T00:03:54.554Z,0.07
2023-02-08T00:08:57.471Z,0.09
2023-02-08T00:14:00.168Z,0.09
2023-02-08T00:19:15.740Z,0.09
2023-02-08T00:24:20.031Z,0.10
2023-02-08T00:29:21.965Z,0.08
2023-02-08T00:34:30.616Z,0.13
2023-02-08T00:39:32.892Z,0.13
2023-02-08T00:44:35.254Z,0.07
2023-02-08T00:49:37.996Z,0.07
2023-02-08T00:54:42.350Z,0.02
2023-02-08T00:59:44.519Z,-0.06
2023-02-08T01:04:49.216Z,-0.08
2023-02-08T01:09:51.573Z,-0.10
2023-02-08T01:14:57.311Z,-0.14
2023-02-08T01:20:00.243Z,-0.14
2023-02-08T01:25:03.173Z,-0.19
2023-02-08T01:30:13.938Z,-0.24
2023-02-08T01:35:16.533Z,-0.28
2023-02-08T01:40:22.228Z,-0.34
2023-02-08T01:45:34.148Z,-0.36
2023-02-08T01:51:10.999Z,-0.38
2023-02-08T01:56:22.385Z,-0.42
2023-02-08T02:01:26.240Z,-0.40
2023-02-08T02:06:40.252Z,-0.49
2023-02-08T02:11:45.025Z,-0.46
2023-02-08T02:16:47.286Z,-0.48
2023-02-08T02:22:14.176Z,-0.48
2023-02-08T02:27:30.076Z,-0.41
2023-02-08T02:33:00.247Z,-0.37
2023-02-08T02:38:45.379Z,-0.38
2023-02-08T02:43:58.660Z,-0.34
2023-02-08T02:49:20.746Z,-0.33
2023-02-08T02:54:27.484Z,-0.29
2023-02-08T02:59:33.906Z,-0.26
2023-02-08T03:04:38.807Z,-0.22
2023-02-08T03:10:22.929Z,-0.15
2023-02-08T03:16:03.925Z,-0.10
2023-02-08T03:21:49.315Z,-0.04
2023-02-08T03:27:47.694Z,-0.00
2023-02-08T03:33:09.962Z,0.04
2023-02-08T03:38:35.971Z,0.05
2023-02-08T03:44:02.485Z,0.10
2023-02-08T03:49:15.742Z,0.13
2023-02-08T03:54:23.335Z,0.16
2023-02-08T04:00:02.581Z,0.17
2023-02-08T04:05:27.214Z,0.16
2023-02-08T04:10:29.475Z,0.05
2023-02-08T04:15:32.501Z,0.02
2023-02-08T04:20:34.349Z,0.08
2023-02-08T04:25:36.729Z,0.08
2023-02-08T04:30:39.194Z,0.07
2023-02-08T04:35:42.529Z,0.02
2023-02-08T04:40:45.405Z,0.05
2023-02-08T04:45:50.555Z,0.06
2023-02-08T04:50:59.201Z,0.10
2023-02-08T04:56:01.321Z,0.17
2023-02-08T05:01:10.855Z,0.22
2023-02-08T05:06:13.254Z,0.29
2023-02-08T05:11:23.784Z,0.31
2023-02-08T05:16:28.885Z,0.34
2023-02-08T05:21:33.469Z,0.38
2023-02-08T05:26:35.795Z,0.39
2023-02-08T05:31:37.967Z,0.45
2023-02-08T05:36:43.393Z,0.48
2023-02-08T05:41:45.412Z,0.52
2023-02-08T05:46:48.037Z,0.56
2023-02-08T05:51:50.360Z,0.57
2023-02-08T05:56:52.338Z,0.59
2023-02-08T06:01:54.286Z,0.63
2023-02-08T06:06:56.741Z,0.68
2023-02-08T06:12:02.067Z,0.72
2023-02-08T06:17:07.200Z,0.75
2023-02-08T06:22:09.613Z,0.76
2023-02-08T06:27:11.621Z,0.79
2023-02-08T06:32:21.363Z,0.79
2023-02-08T06:37:26.595Z,0.80
2023-02-08T06:42:28.988Z,0.83
2023-02-08T06:47:34.775Z,0.88
2023-02-08T06:52:37.480Z,0.92
2023-02-08T06:57:39.409Z,0.97
2023-02-08T07:02:41.821Z,0.96
2023-02-08T07:07:43.936Z,0.90
2023-02-08T07:12:53.681Z,1.03
2023-02-08T07:18:00.113Z,1.17
2023-02-08T07:23:02.363Z,1.25
2023-02-08T07:28:05.091Z,1.22
2023-02-08T07:33:10.914Z,1.19
2023-02-08T07:38:20.620Z,1.23
2023-02-08T07:43:23.235Z,1.19
2023-02-08T07:48:28.439Z,1.17
2023-02-08T07:53:31.281Z,1.19
2023-02-08T07:58:33.874Z,1.24
2023-02-08T08:03:36.356Z,1.28
2023-02-08T08:08:39.790Z,1.38
2023-02-08T08:13:42.324Z,1.53
2023-02-08T08:18:44.796Z,1.70
2023-02-08T08:23:50.971Z,1.74
2023-02-08T08:28:53.463Z,1.77
2023-02-08T08:33:55.970Z,1.89
2023-02-08T08:38:58.765Z,2.06
2023-02-08T08:44:01.908Z,2.19
2023-02-08T08:49:05.277Z,2.39
2023-02-08T08:54:08.558Z,2.49
2023-02-08T08:59:10.998Z,2.53
2023-02-08T09:04:13.672Z,2.47
2023-02-08T09:09:18.204Z,2.39
2023-02-08T09:14:20.746Z,2.21
2023-02-08T09:19:23.736Z,2.34
2023-02-08T09:24:26.238Z,2.44
2023-02-08T09:29:30.463Z,2.54
2023-02-08T09:34:33.315Z,2.52
2023-02-08T09:39:37.859Z,2.62
2023-02-08T09:45:57.880Z,2.72
2023-02-08T09:51:37.526Z,2.82
2023-02-08T09:56:42.187Z,2.97
2023-02-08T10:01:46.728Z,2.97
2023-02-08T10:06:50.138Z,3.14
2023-02-08T10:12:18.838Z,3.19
2023-02-08T10:18:04.930Z,3.30
2023-02-08T10:23:42.431Z,3.21
2023-02-08T10:29:58.149Z,3.43
2023-02-08T10:35:01.569Z,3.44
2023-02-08T10:40:21.072Z,3.40
2023-02-08T10:45:45.865Z,3.35
2023-02-08T10:50:48.234Z,3.47
2023-02-08T10:55:51.121Z,3.57
2023-02-08T11:00:54.283Z,3.72
2023-02-08T11:05:59.561Z,3.83
2023-02-08T11:11:08.965Z,3.82
2023-02-08T11:16:19.921Z,3.87
2023-02-08T11:21:34.683Z,3.88
2023-02-08T11:26:38.165Z,3.75
2023-02-08T11:32:02.326Z,3.69
2023-02-08T11:37:24.064Z,3.79
2023-02-08T11:42:37.450Z,3.85
2023-02-08T11:47:39.851Z,4.00
2023-02-08T11:52:46.156Z,4.01
2023-02-08T11:57:55.766Z,3.95
2023-02-08T12:03:13.872Z,3.80
2023-02-08T12:08:50.036Z,3.77
2023-02-08T12:14:22.659Z,3.73
2023-02-08T12:19:42.582Z,3.61
2023-02-08T12:25:32.197Z,3.54
2023-02-08T12:30:39.476Z,3.66
2023-02-08T12:36:04.103Z,3.79
2023-02-08T12:41:21.525Z,3.89
2023-02-08T12:46:32.551Z,3.99
2023-02-08T12:51:59.341Z,4.14
2023-02-08T12:57:03.542Z,4.23
2023-02-08T13:02:47.368Z,4.20
2023-02-08T13:07:58.511Z,4.18
2023-02-08T13:13:30.679Z,4.10
2023-02-08T13:18:40.000Z,4.05
2023-02-08T13:23:52.728Z,4.07
2023-02-08T13:28:59.434Z,4.04
2023-02-08T13:34:14.771Z,4.04
2023-02-08T13:39:49.231Z,3.93
2023-02-08T13:44:55.474Z,3.89
2023-02-08T13:50:00.852Z,3.87
2023-02-08T13:55:51.312Z,3.75
2023-02-08T14:00:53.908Z,3.63
2023-02-08T14:06:08.673Z,3.56
2023-02-08T14:11:40.735Z,3.56
2023-02-08T14:16:45.444Z,3.56
2023-02-08T14:21:50.533Z,3.57
2023-02-08T14:27:28.301Z,3.49
2023-02-08T14:32:35.758Z,3.39
2023-02-08T14:37:38.560Z,3.22
2023-02-08T14:43:07.856Z,3.11
2023-02-08T14:48:47.630Z,2.99
2023-02-08T14:54:07.004Z,2.97
2023-02-08T14:59:21.302Z,2.86
2023-02-08T15:04:24.127Z,2.74
2023-02-08T15:09:32.860Z,2.60
2023-02-08T15:14:37.501Z,2.51
2023-02-08T15:19:40.828Z,2.42
2023-02-08T15:25:25.810Z,2.30
2023-02-08T15:30:39.215Z,2.16
2023-02-08T15:35:43.212Z,2.02
2023-02-08T15:41:04.392Z,1.90
2023-02-08T15:46:19.093Z,1.76
2023-02-08T15:51:24.275Z,1.60
2023-02-08T15:56:38.404Z,1.48
2023-02-08T16:01:47.239Z,1.31
2023-02-08T16:06:56.218Z,1.15
2023-02-08T16:12:01.016Z,1.00
2023-02-08T16:17:04.374Z,0.90
2023-02-08T16:22:22.952Z,0.75
2023-02-08T16:27:29.874Z,0.60
2023-02-08T16:32:35.939Z,0.48
2023-02-08T16:37:38.692Z,0.35
2023-02-08T16:42:41.049Z,0.23
2023-02-08T16:47:49.978Z,0.11
2023-02-08T16:52:59.766Z,0.01
2023-02-08T16:58:02.230Z,-0.06
2023-02-08T17:03:04.940Z,-0.11
2023-02-08T17:08:12.136Z,-0.17
2023-02-08T17:13:20.181Z,-0.24
2023-02-08T17:18:23.171Z,-0.29
2023-02-08T17:23:26.606Z,-0.35
2023-02-08T17:28:29.379Z,-0.40
2023-02-08T17:33:36.532Z,-0.44
2023-02-08T17:38:40.366Z,-0.45
2023-02-08T17:43:42.379Z,-0.47
2023-02-08T17:48:46.686Z,-0.54
2023-02-08T17:53:51.263Z,-0.58
2023-02-08T17:58:55.766Z,-0.63
2023-02-08T18:03:59.604Z,-0.69
2023-02-08T18:09:02.870Z,-0.79
2023-02-08T18:14:09.577Z,-0.91
2023-02-08T18:19:12.354Z,-1.03
2023-02-08T18:24:14.716Z,-1.13
2023-02-08T18:29:18.529Z,-1.20
2023-02-08T18:34:21.349Z,-1.24
2023-02-08T18:39:24.196Z,-1.28
2023-02-08T18:44:26.235Z,-1.34
2023-02-08T18:49:28.236Z,-1.44
2023-02-08T18:54:33.767Z,-1.55
2023-02-08T18:59:35.974Z,-1.60
2023-02-08T19:04:39.189Z,-1.67
2023-02-08T19:09:44.648Z,-1.76
2023-02-08T19:14:51.141Z,-1.83
2023-02-08T19:19:54.072Z,-1.93
2023-02-08T19:25:07.927Z,-2.07
2023-02-08T19:30:10.593Z,-2.19
2023-02-08T19:35:12.876Z,-2.28
2023-02-08T19:40:15.748Z,-2.36
2023-02-08T19:45:18.089Z,-2.41
2023-02-08T19:50:20.065Z,-2.48
2023-02-08T19:55:23.514Z,-2.57
2023-02-08T20:00:25.969Z,-2.68
2023-02-08T20:05:27.782Z,-2.78
2023-02-08T20:10:29.842Z,-2.87
2023-02-08T20:15:34.799Z,-2.90
2023-02-08T20:20:37.737Z,-2.91
2023-02-08T20:25:39.770Z,-2.94
2023-02-08T20:30:42.038Z,-2.95
2023-02-08T20:35:44.442Z,-2.95
2023-02-08T20:40:46.553Z,-2.97
2023-02-08T20:45:48.706Z,-3.03
2023-02-08T20:50:51.170Z,-3.08
2023-02-08T20:55:53.255Z,-3.13
2023-02-08T21:00:55.237Z,-3.17
2023-02-08T21:05:58.177Z,-3.20
2023-02-08T21:11:02.318Z,-3.26
2023-02-08T21:16:06.157Z,-3.28
2023-02-08T21:21:09.482Z,-3.26
2023-02-08T21:26:14.914Z,-3.24
2023-02-08T21:31:19.983Z,-3.23
2023-02-08T21:36:24.000Z,-3.23
2023-02-08T21:41:29.380Z,-3.24
2023-02-08T21:46:32.670Z,-3.26
2023-02-08T21:51:53.930Z,-3.28
2023-02-08T21:57:01.686Z,-3.31
2023-02-08T22:02:07.181Z,-3.35
2023-02-08T22:07:09.318Z,-3.40
2023-02-08T22:12:18.777Z,-3.47
2023-02-08T22:17:20.845Z,-3.54
2023-02-08T22:22:22.694Z,-3.57
2023-02-08T22:27:27.621Z,-3.54
2023-02-08T22:32:32.273Z,-3.52
2023-02-08T22:37:35.369Z,-3.51
2023-02-08T22:42:39.112Z,-3.51
2023-02-08T22:47:41.125Z,-3.46
2023-02-08T22:52:43.033Z,-3.47
2023-02-08T22:57:45.149Z,-3.58
2023-02-08T23:02:47.193Z,-3.70
2023-02-08T23:07:49.615Z,-3.81
2023-02-08T23:12:51.552Z,-3.89
2023-02-08T23:17:54.204Z,-4.01
2023-02-08T23:22:56.658Z,-4.08
2023-02-08T23:27:59.156Z,-4.17
2023-02-08T23:33:01.042Z,-4.25
2023-02-08T23:38:03.725Z,-4.28
2023-02-08T23:43:06.645Z,-4.32
2023-02-08T23:48:08.654Z,-4.38
2023-02-08T23:53:10.718Z,-4.43
2023-02-08T23:58:12.748Z,-4.43
